Time;durP1;ratioP1;P1;durP2;ratioP2;P2;SDS_P1;SDS_P2;PMS_P1;PMS_P2;Temp;Humidity;BMP_temperature;BMP_pressure;BME280_temperature;BME280_humidity;BME280_pressure;Samples;Min_cycle;Max_cycle;Signal;HPM_P1;HPM_P2
2023/03/12 00:00:47;;;;;;;13.13;4.90;;;2.30;66.10;;;;;;4967924;28;20735;-61
2023/03/12 00:03:13;;;;;;;11.43;5.40;;;2.30;66.30;;;;;;4967306;28;20035;-61
2023/03/12 00:05:40;;;;;;;8.52;4.28;;;2.30;66.30;;;;;;4964835;28;20610;-62
2023/03/12 00:08:06;;;;;;;8.40;4.38;;;2.20;66.30;;;;;;4967126;28;20046;-61
2023/03/12 00:10:32;;;;;;;8.23;3.90;;;2.20;66.30;;;;;;4964274;28;20035;-61
2023/03/12 00:12:58;;;;;;;6.95;4.00;;;2.20;66.30;;;;;;4962742;28;20101;-61
2023/03/12 00:15:24;;;;;;;6.35;3.55;;;2.20;66.50;;;;;;4969458;28;20070;-59
2023/03/12 00:17:50;;;;;;;9.25;3.92;;;2.20;66.60;;;;;;4965788;28;20039;-61
2023/03/12 00:20:16;;;;;;;7.95;4.15;;;2.20;66.60;;;;;;4966752;28;20034;-61
2023/03/12 00:22:42;;;;;;;11.02;5.30;;;2.20;66.70;;;;;;4962440;28;20430;-60
2023/03/12 00:25:12;;;;;;;12.32;6.70;;;2.20;66.90;;;;;;4968876;28;20042;-60
2023/03/12 00:27:38;;;;;;;18.58;8.30;;;2.10;67.10;;;;;;4965382;28;20121;-61
2023/03/12 00:30:05;;;;;;;15.90;6.80;;;2.10;67.10;;;;;;4970404;28;20134;-60
2023/03/12 00:32:34;;;;;;;27.20;9.98;;;2.00;67.30;;;;;;4971918;28;20035;-58
2023/03/12 00:35:00;;;;;;;33.00;10.75;;;2.00;67.50;;;;;;4975668;28;20146;-59
2023/03/12 00:37:25;;;;;;;29.83;10.50;;;2.00;67.40;;;;;;4976022;28;20059;-60
2023/03/12 00:39:51;;;;;;;39.00;12.45;;;1.90;67.40;;;;;;4971249;28;20090;-60
2023/03/12 00:42:17;;;;;;;40.15;12.77;;;1.90;67.50;;;;;;4965629;28;20403;-58
2023/03/12 00:44:43;;;;;;;27.45;9.90;;;1.90;67.60;;;;;;4960905;28;20027;-58
2023/03/12 00:47:09;;;;;;;31.65;10.52;;;1.90;67.90;;;;;;4972577;28;20030;-59
2023/03/12 00:49:35;;;;;;;43.85;14.65;;;1.90;67.90;;;;;;4967717;28;20518;-57
2023/03/12 00:52:01;;;;;;;53.08;15.95;;;1.80;68.00;;;;;;4966334;28;20042;-57
2023/03/12 00:54:26;;;;;;;43.78;14.13;;;1.80;68.00;;;;;;4968972;28;20054;-59
2023/03/12 00:56:52;;;;;;;45.90;13.80;;;1.80;68.20;;;;;;4972083;28;20049;-60
2023/03/12 00:59:17;;;;;;;36.30;12.15;;;1.70;68.20;;;;;;4969975;28;20172;-59
2023/03/12 01:01:43;;;;;;;29.35;10.15;;;1.70;68.40;;;;;;4974907;28;20038;-58
2023/03/12 01:04:09;;;;;;;24.88;9.38;;;1.70;68.20;;;;;;4974763;28;20065;-60
2023/03/12 01:06:34;;;;;;;18.25;7.30;;;1.70;68.20;;;;;;4965016;28;20035;-57
2023/03/12 01:09:05;;;;;;;16.40;6.13;;;1.70;68.40;;;;;;4970420;28;20263;-60
2023/03/12 01:11:31;;;;;;;14.02;6.38;;;1.70;68.70;;;;;;4967315;28;20042;-58
2023/03/12 01:14:01;;;;;;;13.10;5.60;;;1.70;68.70;;;;;;4959971;28;20119;-60
2023/03/12 01:16:29;;;;;;;15.98;5.80;;;1.70;68.70;;;;;;4971193;28;20499;-59
2023/03/12 01:18:55;;;;;;;13.20;6.10;;;1.70;68.60;;;;;;4969222;28;20039;-59
2023/03/12 01:21:21;;;;;;;12.68;5.68;;;1.70;68.60;;;;;;4969039;28;20117;-59
2023/03/12 01:23:47;;;;;;;12.13;6.05;;;1.60;68.70;;;;;;4968310;28;20031;-61
2023/03/12 01:26:13;;;;;;;11.65;5.53;;;1.70;68.70;;;;;;4969217;28;20039;-58
2023/03/12 01:28:39;;;;;;;9.30;5.47;;;1.60;68.90;;;;;;4969850;28;20035;-59
2023/03/12 01:31:09;;;;;;;9.93;5.00;;;1.70;69.10;;;;;;4972759;28;20450;-58
2023/03/12 01:33:35;;;;;;;8.57;4.50;;;1.60;69.10;;;;;;4977119;28;20028;-59
2023/03/12 01:36:01;;;;;;;8.98;4.75;;;1.70;69.10;;;;;;4975462;28;20088;-57
2023/03/12 01:38:26;;;;;;;8.18;4.35;;;1.60;69.00;;;;;;4972588;28;20034;-59
2023/03/12 01:40:52;;;;;;;6.00;3.80;;;1.70;69.40;;;;;;4971594;28;20042;-60
2023/03/12 01:43:26;;;;;;;10.82;4.20;;;1.70;69.10;;;;;;4967239;28;20034;-61
2023/03/12 01:46:10;;;;;;;6.35;3.75;;;1.70;69.60;;;;;;4963391;28;20030;-61
2023/03/12 01:48:46;;;;;;;7.43;3.72;;;1.60;69.40;;;;;;4965128;28;20030;-62
2023/03/12 01:51:14;;;;;;;6.95;3.70;;;1.70;69.50;;;;;;4955503;28;20415;-62
2023/03/12 01:53:43;;;;;;;5.90;3.55;;;1.70;69.40;;;;;;4962613;28;20042;-61
2023/03/12 01:56:10;;;;;;;7.45;3.92;;;1.70;69.60;;;;;;4971462;28;20074;-61
2023/03/12 01:58:38;;;;;;;6.13;3.65;;;1.60;69.60;;;;;;4964669;28;20047;-61
2023/03/12 02:01:05;;;;;;;6.10;3.75;;;1.70;69.80;;;;;;4966686;28;20011;-61
2023/03/12 02:03:31;;;;;;;5.72;3.65;;;1.70;69.90;;;;;;4961103;28;20034;-60
2023/03/12 02:06:10;;;;;;;8.45;3.60;;;1.70;70.00;;;;;;4968912;28;20144;-60
2023/03/12 02:08:38;;;;;;;7.80;3.63;;;1.70;70.30;;;;;;4969917;28;20138;-61
2023/03/12 02:11:04;;;;;;;7.15;3.70;;;1.80;70.10;;;;;;4958809;28;21904;-61
2023/03/12 02:13:30;;;;;;;5.75;3.88;;;1.80;70.10;;;;;;4964889;28;20027;-59
2023/03/12 02:15:55;;;;;;;6.90;3.72;;;1.80;70.20;;;;;;4969969;28;20510;-61
2023/03/12 02:18:21;;;;;;;6.65;3.85;;;1.80;70.10;;;;;;4955918;28;20082;-60
2023/03/12 02:21:00;;;;;;;9.10;4.20;;;1.80;70.10;;;;;;4963393;28;20070;-59
2023/03/12 02:23:35;;;;;;;5.78;3.53;;;1.80;70.30;;;;;;4965069;28;20042;-61
2023/03/12 02:26:03;;;;;;;6.88;3.60;;;1.90;71.20;;;;;;4966524;28;20466;-60
2023/03/12 02:28:32;;;;;;;4.80;3.40;;;1.90;70.20;;;;;;4962860;28;20089;-60
2023/03/12 02:31:02;;;;;;;5.75;3.60;;;1.90;70.10;;;;;;4965199;28;20057;-62
2023/03/12 02:33:28;;;;;;;5.50;3.58;;;1.90;70.30;;;;;;4973576;28;20062;-61
2023/03/12 02:35:54;;;;;;;5.95;3.72;;;1.90;70.30;;;;;;4975567;28;20124;-61
2023/03/12 02:38:40;;;;;;;6.68;3.60;;;2.00;70.40;;;;;;4967454;28;20548;-61
2023/03/12 02:41:14;;;;;;;7.53;3.67;;;2.00;70.70;;;;;;4965907;28;20031;-60
2023/03/12 02:43:41;;;;;;;8.48;3.60;;;2.10;70.60;;;;;;4967605;28;20076;-61
2023/03/12 02:46:07;;;;;;;6.93;4.10;;;2.10;70.50;;;;;;4965840;28;20046;-59
2023/03/12 02:48:33;;;;;;;8.70;3.78;;;2.10;70.40;;;;;;4967523;28;20026;-59
2023/03/12 02:50:58;;;;;;;6.30;3.85;;;2.20;70.50;;;;;;4965681;28;20592;-61
2023/03/12 02:53:24;;;;;;;4.93;3.45;;;2.20;70.50;;;;;;4967341;28;20114;-60
2023/03/12 02:55:50;;;;;;;7.93;3.83;;;2.20;70.40;;;;;;4966480;28;20501;-61
2023/03/12 02:58:15;;;;;;;6.32;3.65;;;2.30;70.50;;;;;;4968436;28;20403;-60
2023/03/12 03:00:41;;;;;;;7.72;3.75;;;2.30;70.30;;;;;;4969908;28;20055;-59
2023/03/12 03:03:07;;;;;;;6.00;3.53;;;2.30;70.40;;;;;;4972449;28;20703;-60
2023/03/12 03:05:35;;;;;;;5.07;3.30;;;2.40;71.30;;;;;;4969608;28;20113;-61
2023/03/12 03:08:02;;;;;;;7.10;3.97;;;2.40;70.30;;;;;;4974971;28;20046;-60
2023/03/12 03:10:27;;;;;;;7.72;3.70;;;2.40;71.10;;;;;;4970774;28;20046;-59
2023/03/12 03:12:53;;;;;;;7.13;4.10;;;2.40;70.30;;;;;;4963550;28;20043;-59
2023/03/12 03:15:18;;;;;;;5.93;3.83;;;2.40;70.40;;;;;;4967565;28;20405;-60
2023/03/12 03:17:44;;;;;;;10.02;3.88;;;2.50;70.40;;;;;;4971566;28;20034;-56
2023/03/12 03:20:10;;;;;;;6.97;4.30;;;2.50;70.40;;;;;;4972614;28;20108;-59
2023/03/12 03:22:37;;;;;;;8.30;4.40;;;2.60;70.50;;;;;;4970489;28;20110;-58
2023/03/12 03:25:04;;;;;;;6.90;4.00;;;2.60;70.50;;;;;;4966938;28;20045;-59
2023/03/12 03:27:29;;;;;;;7.68;3.60;;;2.60;70.50;;;;;;4971884;28;20109;-59
2023/03/12 03:29:55;;;;;;;6.85;3.90;;;2.70;70.60;;;;;;4967901;28;20790;-60
2023/03/12 03:32:20;;;;;;;5.75;3.40;;;2.70;70.60;;;;;;4969411;28;20134;-61
2023/03/12 03:34:46;;;;;;;5.20;3.67;;;2.70;70.50;;;;;;4968118;28;20077;-60
2023/03/12 03:37:12;;;;;;;7.28;3.60;;;2.80;70.50;;;;;;4969750;28;20415;-61
2023/03/12 03:39:37;;;;;;;3.70;3.35;;;2.80;70.50;;;;;;4966571;28;20439;-61
2023/03/12 03:42:03;;;;;;;5.07;3.60;;;2.80;70.50;;;;;;4967196;28;20039;-61
2023/03/12 03:44:29;;;;;;;7.38;3.67;;;2.90;70.50;;;;;;4963704;28;20085;-61
2023/03/12 03:46:55;;;;;;;5.90;3.60;;;2.90;70.40;;;;;;4970972;28;20594;-61
2023/03/12 03:49:21;;;;;;;9.82;3.40;;;2.90;70.30;;;;;;4964408;28;20038;-60
2023/03/12 03:51:47;;;;;;;5.53;3.83;;;2.90;70.20;;;;;;4963044;28;20148;-62
2023/03/12 03:54:13;;;;;;;5.10;3.50;;;2.90;70.40;;;;;;4967605;28;20625;-61
2023/03/12 03:56:39;;;;;;;6.10;3.80;;;3.00;70.50;;;;;;4965054;28;20932;-61
2023/03/12 03:59:06;;;;;;;5.75;3.47;;;3.00;70.50;;;;;;4965231;28;20552;-59
2023/03/12 04:01:31;;;;;;;5.90;3.58;;;3.00;70.50;;;;;;4974293;28;20105;-57
2023/03/12 04:03:58;;;;;;;5.43;3.72;;;3.00;70.60;;;;;;4970345;28;20035;-59
2023/03/12 04:06:23;;;;;;;4.82;3.50;;;3.10;70.60;;;;;;4970046;28;20031;-60
2023/03/12 04:08:49;;;;;;;6.05;3.60;;;3.10;70.70;;;;;;4964565;28;20483;-60
2023/03/12 04:11:20;;;;;;;7.97;3.90;;;3.10;70.70;;;;;;4967779;28;20533;-58
2023/03/12 04:13:46;;;;;;;6.03;3.72;;;3.10;70.90;;;;;;4964564;28;20133;-59
2023/03/12 04:16:13;;;;;;;5.95;4.00;;;3.20;71.00;;;;;;4964575;28;20114;-61
2023/03/12 04:18:39;;;;;;;6.05;4.13;;;3.20;71.00;;;;;;4971802;28;20034;-58
2023/03/12 04:21:06;;;;;;;7.28;4.25;;;3.20;70.80;;;;;;4970781;28;20050;-59
2023/03/12 04:23:32;;;;;;;9.10;4.47;;;3.30;71.00;;;;;;4970649;28;20038;-59
2023/03/12 04:25:58;;;;;;;6.72;4.18;;;3.30;71.00;;;;;;4966788;28;20450;-60
2023/03/12 04:28:24;;;;;;;7.20;4.28;;;3.30;71.20;;;;;;4966294;28;20043;-60
2023/03/12 04:31:00;;;;;;;8.20;4.65;;;3.30;71.30;;;;;;4964393;28;20039;-58
2023/03/12 04:33:32;;;;;;;8.52;4.40;;;3.30;71.70;;;;;;4968101;28;20061;-58
2023/03/12 04:35:57;;;;;;;9.25;5.10;;;3.40;71.70;;;;;;4962852;28;20570;-59
2023/03/12 04:38:25;;;;;;;6.68;5.07;;;3.30;71.70;;;;;;4969135;28;20117;-60
2023/03/12 04:41:02;;;;;;;8.63;5.78;;;3.40;71.90;;;;;;4966735;28;20064;-58
2023/03/12 04:43:28;;;;;;;8.55;5.40;;;3.40;72.40;;;;;;4962514;28;20046;-55
2023/03/12 04:45:55;;;;;;;7.93;5.40;;;3.40;72.00;;;;;;4966631;28;20457;-58
2023/03/12 04:48:20;;;;;;;8.85;5.55;;;3.50;72.30;;;;;;4962866;28;20122;-59
2023/03/12 04:50:46;;;;;;;10.38;6.32;;;3.50;72.40;;;;;;4970786;28;20540;-58
2023/03/12 04:53:12;;;;;;;10.80;6.88;;;3.50;72.50;;;;;;4969920;28;20321;-59
2023/03/12 04:55:37;;;;;;;10.65;7.25;;;3.50;72.70;;;;;;4964062;28;20031;-59
2023/03/12 04:58:03;;;;;;;12.30;8.27;;;3.50;72.90;;;;;;4967000;28;20089;-60
2023/03/12 05:00:28;;;;;;;12.13;8.18;;;3.50;73.00;;;;;;4948430;28;20146;-59
2023/03/12 05:02:54;;;;;;;13.05;8.65;;;3.50;73.10;;;;;;4965550;28;20665;-62
2023/03/12 05:05:20;;;;;;;16.33;10.00;;;3.60;74.30;;;;;;4969817;28;20023;-57
2023/03/12 05:07:45;;;;;;;15.32;9.80;;;3.60;73.80;;;;;;4968431;28;20161;-57
2023/03/12 05:10:11;;;;;;;15.85;10.32;;;3.60;74.10;;;;;;4968577;28;20059;-58
2023/03/12 05:12:36;;;;;;;15.52;10.15;;;3.60;74.40;;;;;;4958265;28;20031;-58
2023/03/12 05:15:02;;;;;;;14.07;9.15;;;3.70;74.70;;;;;;4962287;28;20102;-58
2023/03/12 05:17:28;;;;;;;12.40;8.95;;;3.70;74.90;;;;;;4968034;28;20038;-58
2023/03/12 05:19:53;;;;;;;12.82;7.90;;;3.70;75.00;;;;;;4969539;28;20031;-58
2023/03/12 05:22:19;;;;;;;10.50;7.03;;;3.70;75.10;;;;;;4970537;28;20875;-57
2023/03/12 05:24:44;;;;;;;13.98;7.45;;;3.80;75.10;;;;;;4970041;28;20027;-59
2023/03/12 05:27:10;;;;;;;10.68;7.43;;;3.80;75.00;;;;;;4970316;28;20339;-59
2023/03/12 05:29:36;;;;;;;12.70;7.53;;;3.80;75.10;;;;;;4968947;28;20035;-60
2023/03/12 05:32:01;;;;;;;13.93;8.57;;;3.80;75.00;;;;;;4971499;28;20141;-58
2023/03/12 05:34:29;;;;;;;13.20;8.93;;;3.80;75.00;;;;;;4965448;28;20503;-60
2023/03/12 05:36:55;;;;;;;15.43;10.18;;;3.90;75.10;;;;;;4969576;28;20395;-61
2023/03/12 05:39:21;;;;;;;13.18;8.15;;;3.90;75.10;;;;;;4966489;28;20040;-59
2023/03/12 05:41:47;;;;;;;12.43;7.75;;;3.90;75.10;;;;;;4968039;28;20034;-60
2023/03/12 05:44:14;;;;;;;11.05;7.32;;;3.90;75.10;;;;;;4978215;28;20043;-58
2023/03/12 05:46:41;;;;;;;12.63;6.82;;;3.90;74.90;;;;;;4976962;28;20031;-59
2023/03/12 05:49:07;;;;;;;9.68;6.68;;;3.90;74.80;;;;;;4976180;28;20076;-59
2023/03/12 05:51:33;;;;;;;9.13;6.85;;;3.90;74.80;;;;;;4976293;28;20271;-58
2023/03/12 05:53:59;;;;;;;11.80;6.97;;;3.90;75.00;;;;;;4966653;28;20035;-60
2023/03/12 05:56:24;;;;;;;12.38;7.45;;;3.90;75.10;;;;;;4962496;28;20876;-59
2023/03/12 05:58:50;;;;;;;11.00;7.32;;;3.90;75.20;;;;;;4963477;28;20035;-58
2023/03/12 06:01:19;;;;;;;10.68;7.22;;;3.90;75.20;;;;;;4970588;28;20134;-59
2023/03/12 06:03:44;;;;;;;10.65;7.00;;;4.00;75.20;;;;;;4966041;28;22285;-59
2023/03/12 06:06:10;;;;;;;15.00;9.70;;;4.00;75.40;;;;;;4968006;28;20092;-59
2023/03/12 06:08:37;;;;;;;37.33;22.85;;;4.00;75.30;;;;;;4962975;28;20639;-59
2023/03/12 06:11:02;;;;;;;28.65;17.13;;;4.00;75.20;;;;;;4962272;28;21302;-60
2023/03/12 06:13:28;;;;;;;31.25;18.58;;;4.10;75.50;;;;;;4966201;28;20037;-59
2023/03/12 06:15:54;;;;;;;20.48;11.73;;;4.10;75.40;;;;;;4966641;28;20065;-60
2023/03/12 06:18:19;;;;;;;16.73;10.27;;;4.20;75.50;;;;;;4963882;28;20038;-59
2023/03/12 06:20:45;;;;;;;19.00;10.20;;;4.20;75.50;;;;;;4963313;28;20550;-60
2023/03/12 06:23:10;;;;;;;13.23;9.10;;;4.20;75.50;;;;;;4967762;28;20073;-61
2023/03/12 06:25:36;;;;;;;13.07;8.32;;;4.20;75.60;;;;;;4965701;28;20487;-56
2023/03/12 06:28:02;;;;;;;9.45;6.97;;;4.30;75.90;;;;;;4967431;28;20038;-57
2023/03/12 06:30:27;;;;;;;9.90;6.25;;;4.30;76.10;;;;;;4960441;28;20642;-58
2023/03/12 06:32:56;;;;;;;8.65;5.82;;;4.40;76.90;;;;;;4968198;28;20038;-59
2023/03/12 06:35:22;;;;;;;9.13;6.80;;;4.40;76.60;;;;;;4964706;28;20043;-61
2023/03/12 06:37:47;;;;;;;15.23;9.55;;;4.40;76.90;;;;;;4962794;28;20035;-61
2023/03/12 06:40:13;;;;;;;18.92;12.95;;;4.50;77.20;;;;;;4960762;28;20133;-60
2023/03/12 06:42:39;;;;;;;18.98;12.43;;;4.50;77.50;;;;;;4965305;28;20518;-58
2023/03/12 06:45:05;;;;;;;16.48;11.00;;;4.60;77.60;;;;;;4970165;28;20031;-59
2023/03/12 06:47:31;;;;;;;13.32;9.65;;;4.60;77.80;;;;;;4960341;28;20043;-57
2023/03/12 06:49:56;;;;;;;16.38;9.90;;;4.60;77.80;;;;;;4963791;28;20091;-59
2023/03/12 06:52:22;;;;;;;13.82;9.23;;;4.70;78.10;;;;;;4961894;28;20130;-58
2023/03/12 06:54:48;;;;;;;13.35;9.45;;;4.70;78.30;;;;;;4972047;28;20065;-60
2023/03/12 06:57:15;;;;;;;11.50;8.00;;;4.70;78.30;;;;;;4973575;28;20039;-60
2023/03/12 06:59:41;;;;;;;12.07;8.52;;;4.80;78.50;;;;;;4975282;28;20049;-60
2023/03/12 07:02:10;;;;;;;10.30;7.15;;;4.80;78.50;;;;;;4968108;28;20062;-60
2023/03/12 07:04:35;;;;;;;9.95;6.32;;;4.90;78.70;;;;;;4969469;28;20093;-61
2023/03/12 07:07:01;;;;;;;7.28;5.60;;;5.00;78.80;;;;;;4966768;28;20038;-62
2023/03/12 07:09:26;;;;;;;9.43;6.10;;;5.00;78.70;;;;;;4969700;28;20054;-62
2023/03/12 07:11:52;;;;;;;13.93;8.07;;;5.00;78.60;;;;;;4965943;28;20522;-60
2023/03/12 07:14:19;;;;;;;24.58;12.27;;;5.00;79.50;;;;;;4965619;28;20414;-60
2023/03/12 07:16:44;;;;;;;46.10;21.80;;;5.10;78.80;;;;;;4964475;28;20396;-63
2023/03/12 07:19:10;;;;;;;15.90;9.85;;;5.10;78.90;;;;;;4963286;28;20030;-61
2023/03/12 07:21:35;;;;;;;12.05;7.47;;;5.20;79.00;;;;;;4961514;28;20074;-59
2023/03/12 07:24:05;;;;;;;9.20;6.43;;;5.20;79.20;;;;;;4960374;28;20742;-62
2023/03/12 07:26:31;;;;;;;10.43;6.88;;;5.20;79.30;;;;;;4940809;28;20114;-61
2023/03/12 07:28:57;;;;;;;11.05;7.10;;;5.30;79.40;;;;;;4952014;28;20553;-62
2023/03/12 07:31:22;;;;;;;11.85;7.32;;;5.30;79.40;;;;;;4953207;28;20581;-58
2023/03/12 07:33:48;;;;;;;12.05;7.15;;;5.30;79.30;;;;;;4955296;28;20031;-62
2023/03/12 07:36:14;;;;;;;9.93;7.00;;;5.40;79.20;;;;;;4965203;28;20031;-61
2023/03/12 07:38:39;;;;;;;9.70;7.03;;;5.40;79.30;;;;;;4961554;28;20046;-59
2023/03/12 07:41:05;;;;;;;11.27;7.75;;;5.40;79.40;;;;;;4967416;28;20422;-62
2023/03/12 07:43:31;;;;;;;13.50;8.85;;;5.50;79.30;;;;;;4973325;28;20042;-60
2023/03/12 07:48:32;;;;;;;10.00;7.10;;;5.60;79.60;;;;;;5567435;22;20058;-62
2023/03/12 07:50:57;;;;;;;9.73;7.68;;;5.60;79.70;;;;;;4980054;28;20543;-62
2023/03/12 07:53:23;;;;;;;10.85;7.47;;;5.60;79.70;;;;;;4984418;28;20038;-61
2023/03/12 07:55:48;;;;;;;10.50;7.65;;;5.70;79.70;;;;;;4985201;28;20453;-61
2023/03/12 07:58:15;;;;;;;12.32;7.63;;;5.70;79.60;;;;;;4980132;28;21355;-62
2023/03/12 08:00:41;;;;;;;12.23;8.13;;;5.70;79.80;;;;;;4984688;28;20089;-61
2023/03/12 08:03:06;;;;;;;11.82;7.85;;;5.80;79.90;;;;;;4984144;28;20054;-61
2023/03/12 08:05:32;;;;;;;12.23;8.18;;;5.80;80.10;;;;;;4981389;28;20593;-62
2023/03/12 08:07:57;;;;;;;11.45;7.68;;;5.80;80.20;;;;;;4990029;28;20054;-63
2023/03/12 08:10:23;;;;;;;13.85;8.00;;;5.90;80.20;;;;;;4989390;28;20038;-60
2023/03/12 08:12:49;;;;;;;14.25;8.20;;;5.90;80.30;;;;;;4978906;28;20042;-62
2023/03/12 08:15:14;;;;;;;13.90;8.90;;;5.90;80.40;;;;;;4983027;28;20069;-62
2023/03/12 08:17:40;;;;;;;10.20;7.82;;;6.00;80.40;;;;;;4981272;28;20074;-61
2023/03/12 08:20:08;;;;;;;11.45;7.95;;;6.00;80.40;;;;;;4980044;28;20053;-62
2023/03/12 08:22:35;;;;;;;11.98;8.23;;;6.10;80.50;;;;;;4984638;28;20026;-60
2023/03/12 08:25:00;;;;;;;10.65;8.00;;;6.10;80.70;;;;;;4991618;28;20129;-62
2023/03/12 08:30:03;;;;;;;11.18;8.20;;;6.20;80.80;;;;;;5109606;22;20054;-61
2023/03/12 08:32:28;;;;;;;9.80;6.72;;;6.30;81.10;;;;;;4973750;28;20274;-61
2023/03/12 08:34:54;;;;;;;8.50;6.15;;;6.30;81.30;;;;;;4981419;28;20482;-61
2023/03/12 08:37:19;;;;;;;9.45;6.53;;;6.40;81.50;;;;;;4989115;28;20105;-62
2023/03/12 08:39:45;;;;;;;9.70;6.82;;;6.40;81.60;;;;;;4976677;28;20104;-63
2023/03/12 08:42:10;;;;;;;11.38;7.63;;;6.50;81.80;;;;;;4976803;28;20746;-61
2023/03/12 08:44:36;;;;;;;9.80;6.95;;;6.60;82.40;;;;;;4979176;28;20642;-60
2023/03/12 08:47:02;;;;;;;9.52;7.20;;;6.70;82.70;;;;;;4974914;28;20031;-61
2023/03/12 08:49:27;;;;;;;10.07;6.95;;;6.70;83.30;;;;;;4974725;28;21326;-64
2023/03/12 08:51:53;;;;;;;10.32;7.07;;;6.80;83.60;;;;;;4981552;28;20034;-58
2023/03/12 08:54:19;;;;;;;9.40;6.50;;;6.90;83.80;;;;;;4982577;28;20100;-61
2023/03/12 08:56:50;;;;;;;8.63;6.82;;;6.90;83.50;;;;;;4977039;28;20042;-60
2023/03/12 08:59:17;;;;;;;10.02;7.38;;;7.00;84.30;;;;;;4978188;28;20041;-59
2023/03/12 09:01:43;;;;;;;9.80;7.22;;;7.10;84.10;;;;;;4977125;28;20038;-59
2023/03/12 09:04:08;;;;;;;10.82;7.80;;;7.20;84.30;;;;;;4975122;28;20049;-61
2023/03/12 09:06:34;;;;;;;10.40;7.32;;;7.30;84.60;;;;;;4975993;28;20026;-60
2023/03/12 09:09:03;;;;;;;8.40;6.75;;;7.40;84.90;;;;;;4969282;28;20027;-61
2023/03/12 09:11:32;;;;;;;9.82;7.53;;;7.50;85.00;;;;;;4972986;28;20097;-61
2023/03/12 09:13:58;;;;;;;9.60;6.18;;;7.60;85.50;;;;;;4980672;28;20042;-57
2023/03/12 09:16:24;;;;;;;8.90;6.93;;;7.70;85.10;;;;;;4983411;28;20037;-59
2023/03/12 09:18:50;;;;;;;8.98;6.60;;;7.80;85.40;;;;;;4979335;28;20066;-60
2023/03/12 09:21:15;;;;;;;7.95;6.45;;;7.90;85.70;;;;;;4978515;28;20042;-63
2023/03/12 09:23:41;;;;;;;8.52;6.68;;;8.00;85.20;;;;;;4981680;28;20580;-62
2023/03/12 09:26:11;;;;;;;8.07;5.95;;;8.10;86.00;;;;;;4995615;28;20038;-61
2023/03/12 09:28:37;;;;;;;6.95;4.88;;;8.20;84.90;;;;;;4977475;28;20433;-58
2023/03/12 09:31:04;;;;;;;7.10;5.32;;;8.40;84.60;;;;;;4973365;28;20046;-59
2023/03/12 09:33:30;;;;;;;6.55;5.15;;;8.50;84.50;;;;;;4976139;28;20069;-58
2023/03/12 09:35:57;;;;;;;8.40;6.13;;;8.50;84.10;;;;;;4978485;28;20042;-59
2023/03/12 09:38:22;;;;;;;7.38;5.63;;;8.60;83.80;;;;;;4967439;28;20507;-60
2023/03/12 09:40:48;;;;;;;6.82;5.82;;;8.70;83.60;;;;;;4971200;28;20061;-59
2023/03/12 09:43:21;;;;;;;8.27;6.18;;;8.80;83.30;;;;;;4971589;28;20045;-59
2023/03/12 09:45:48;;;;;;;7.55;6.10;;;8.90;83.20;;;;;;4980346;28;20155;-59
2023/03/12 09:48:33;;;;;;;7.88;5.88;;;9.00;82.90;;;;;;4974993;28;20042;-58
2023/03/12 09:51:07;;;;;;;;;;;9.00;83.10;;;;;;4973683;28;20050;-61
2023/03/12 09:53:56;;;;;;;6.18;5.18;;;9.00;84.30;;;;;;4976228;28;19926;-59
2023/03/12 09:56:22;;;;;;;7.40;5.65;;;9.10;83.10;;;;;;4979736;28;20137;-58
2023/03/12 09:58:53;;;;;;;8.70;5.60;;;9.20;82.40;;;;;;4978706;28;20046;-61
2023/03/12 10:01:37;;;;;;;9.07;5.20;;;9.20;82.20;;;;;;4974996;28;20055;-60
2023/03/12 10:04:02;;;;;;;7.38;5.13;;;9.20;82.60;;;;;;4979608;28;20037;-60
2023/03/12 10:06:42;;;;;;;8.93;5.72;;;9.30;82.00;;;;;;4971734;28;20030;-61
2023/03/12 10:09:22;;;;;;;9.23;5.93;;;9.30;82.90;;;;;;4976950;28;20129;-61
2023/03/12 10:12:00;;;;;;;6.95;5.65;;;9.30;84.00;;;;;;4971927;28;20092;-60
2023/03/12 10:14:29;;;;;;;7.25;5.82;;;9.30;82.90;;;;;;4974929;28;20041;-59
2023/03/12 10:17:29;;;;;;;7.75;5.50;;;9.30;82.70;;;;;;4976005;28;20026;-63
2023/03/12 10:20:00;;;;;;;8.45;5.95;;;9.40;83.10;;;;;;4974920;28;20525;-61
2023/03/12 10:22:37;;;;;;;6.50;5.15;;;9.40;82.80;;;;;;4977078;28;20042;-60
2023/03/12 10:25:29;;;;;;;7.53;6.07;;;9.40;82.40;;;;;;4977562;28;20030;-59
2023/03/12 10:28:03;;;;;;;7.35;5.47;;;9.50;82.70;;;;;;4973291;28;20245;-61
2023/03/12 10:30:30;;;;;;;13.07;8.45;;;9.50;82.10;;;;;;4972333;28;20077;-61
2023/03/12 10:33:00;;;;;;;10.00;6.75;;;9.60;82.40;;;;;;4980170;28;20042;-61
2023/03/12 10:35:29;;;;;;;9.35;5.80;;;9.60;82.30;;;;;;4975989;28;20501;-61
2023/03/12 10:38:00;;;;;;;7.93;6.20;;;9.70;82.40;;;;;;4974952;28;20579;-60
2023/03/12 10:40:29;;;;;;;7.57;5.90;;;9.80;82.40;;;;;;4977876;28;20034;-61
2023/03/12 10:42:55;;;;;;;8.15;5.75;;;9.80;82.10;;;;;;4978430;28;20485;-60
2023/03/12 10:45:29;;;;;;;6.85;5.20;;;9.90;82.20;;;;;;4977718;28;20045;-59
2023/03/12 10:48:01;;;;;;;7.40;5.22;;;10.00;82.20;;;;;;4976674;28;20857;-60
2023/03/12 10:50:30;;;;;;;6.72;4.80;;;10.00;81.70;;;;;;4975938;28;20412;-61
2023/03/12 10:53:12;;;;;;;7.97;5.13;;;10.10;81.50;;;;;;4978800;28;20058;-61
2023/03/12 10:55:38;;;;;;;7.22;5.07;;;10.20;82.20;;;;;;4975584;28;20030;-58
2023/03/12 10:58:04;;;;;;;8.30;5.38;;;10.20;81.70;;;;;;4976000;28;20447;-59
2023/03/12 11:00:31;;;;;;;6.60;4.85;;;10.30;81.80;;;;;;4968484;28;20053;-63
2023/03/12 11:03:17;;;;;;;8.90;5.97;;;10.40;81.70;;;;;;4977694;28;20804;-61
2023/03/12 11:05:49;;;;;;;6.80;4.90;;;10.50;81.40;;;;;;4982921;28;20520;-59
2023/03/12 11:08:28;;;;;;;7.00;5.53;;;10.60;81.30;;;;;;4987921;28;20027;-61
2023/03/12 11:10:56;;;;;;;6.10;4.65;;;10.70;81.00;;;;;;4990770;28;20076;-60
2023/03/12 11:13:48;;;;;;;5.97;4.68;;;10.80;80.50;;;;;;4986896;28;20406;-60
2023/03/12 11:16:16;;;;;;;7.25;5.07;;;10.80;80.00;;;;;;4984127;28;20037;-59
2023/03/12 11:19:03;;;;;;;8.00;5.13;;;10.90;79.60;;;;;;4986962;28;20025;-58
2023/03/12 11:21:30;;;;;;;7.50;4.80;;;11.00;79.50;;;;;;4987763;28;20456;-60
2023/03/12 11:23:56;;;;;;;6.18;4.70;;;11.00;79.20;;;;;;4986869;28;20545;-60
2023/03/12 11:26:25;;;;;;;6.78;4.80;;;11.10;79.30;;;;;;5000763;28;20118;-58
2023/03/12 11:29:00;;;;;;;6.78;4.55;;;11.10;79.60;;;;;;4987123;28;20034;-58
2023/03/12 11:31:30;;;;;;;6.35;4.22;;;11.20;79.50;;;;;;4987038;28;20038;-58
2023/03/12 11:34:04;;;;;;;6.93;4.20;;;11.30;79.70;;;;;;4983037;28;20073;-60
2023/03/12 11:37:04;;;;;;;7.28;4.50;;;11.30;79.70;;;;;;4986321;28;20044;-58
2023/03/12 11:39:46;;;;;;;5.18;4.32;;;11.40;79.20;;;;;;4981251;28;20038;-58
2023/03/12 11:42:38;;;;;;;6.28;4.10;;;11.60;79.60;;;;;;4985733;28;20035;-59
2023/03/12 11:45:30;;;;;;;7.97;4.63;;;11.70;79.60;;;;;;4987265;28;20039;-58
2023/03/12 11:48:02;;;;;;;6.35;4.10;;;11.90;78.80;;;;;;4986119;28;20113;-59
2023/03/12 11:50:38;;;;;;;5.70;4.28;;;12.00;78.70;;;;;;4985227;28;20038;-59
2023/03/12 11:53:41;;;;;;;6.15;4.38;;;12.10;78.40;;;;;;4986544;28;20147;-58
2023/03/12 11:56:12;;;;;;;5.10;4.20;;;12.20;78.10;;;;;;4982966;28;20465;-61
2023/03/12 11:58:50;;;;;;;7.40;4.10;;;12.30;77.70;;;;;;4984755;28;20053;-59
2023/03/12 12:01:22;;;;;;;4.90;3.95;;;12.40;77.50;;;;;;4984625;28;20383;-59
2023/03/12 12:03:56;;;;;;;6.18;3.97;;;12.40;77.50;;;;;;4988029;28;20073;-58
2023/03/12 12:07:12;;;;;;;5.28;3.63;;;12.40;77.20;;;;;;4981916;28;20241;-60
2023/03/12 12:09:56;;;;;;;4.63;3.83;;;12.40;77.40;;;;;;4966601;28;20045;-59
2023/03/12 12:12:30;;;;;;;4.40;3.38;;;12.50;77.70;;;;;;4977102;28;20069;-59
2023/03/12 12:15:09;;;;;;;4.57;3.63;;;12.40;77.00;;;;;;4979428;28;20150;-59
2023/03/12 12:18:00;;;;;;;4.15;3.10;;;12.40;76.70;;;;;;4984175;28;20045;-57
2023/03/12 12:20:46;;;;;;;4.47;3.40;;;12.40;76.20;;;;;;4984023;28;20071;-59
2023/03/12 12:23:24;;;;;;;4.22;3.00;;;12.40;76.30;;;;;;4986753;28;20084;-59
2023/03/12 12:26:12;;;;;;;4.50;3.35;;;12.30;76.30;;;;;;4980955;28;20251;-56
2023/03/12 12:28:56;;;;;;;4.22;3.33;;;12.30;76.30;;;;;;4982563;28;20038;-58
2023/03/12 12:31:37;;;;;;;4.47;3.22;;;12.30;76.50;;;;;;4981689;28;20121;-58
2023/03/12 12:34:42;;;;;;;3.50;2.88;;;12.20;77.00;;;;;;4981473;28;20035;-58
2023/03/12 12:37:40;;;;;;;3.42;2.78;;;12.30;77.10;;;;;;4978364;28;20030;-59
2023/03/12 12:40:22;;;;;;;2.58;2.35;;;12.30;77.00;;;;;;4981899;28;20038;-59
2023/03/12 12:43:10;;;;;;;2.40;2.20;;;12.40;77.00;;;;;;4980140;28;20054;-60
2023/03/12 12:45:39;;;;;;;3.28;2.40;;;12.40;76.90;;;;;;4981280;28;20049;-59
2023/03/12 12:48:39;;;;;;;2.80;2.10;;;12.50;76.70;;;;;;4981035;28;20128;-56
2023/03/12 12:51:06;;;;;;;2.40;1.98;;;12.50;76.80;;;;;;4947486;28;20049;-59
2023/03/12 12:53:53;;;;;;;3.17;2.10;;;12.60;76.10;;;;;;4982242;28;20089;-60
2023/03/12 12:56:26;;;;;;;2.45;1.80;;;12.70;76.00;;;;;;4979539;28;20370;-59
2023/03/12 12:59:05;;;;;;;1.88;1.50;;;12.70;75.70;;;;;;4983025;28;20789;-59
2023/03/12 13:01:33;;;;;;;2.17;1.65;;;12.80;75.40;;;;;;4980437;28;20737;-60
2023/03/12 13:04:08;;;;;;;2.28;1.55;;;12.80;75.10;;;;;;4980793;28;20116;-58
2023/03/12 13:07:11;;;;;;;2.88;1.50;;;12.80;74.70;;;;;;4980311;28;20065;-58